createdAt,value
2022-11-30T00:02:07.427Z,100.00
2022-11-30T00:07:09.683Z,100.00
2022-11-30T00:12:12.743Z,100.00
2022-11-30T00:17:15.021Z,100.00
2022-11-30T00:22:17.262Z,100.00
2022-11-30T00:27:20.885Z,100.00
2022-11-30T00:32:22.831Z,100.00
2022-11-30T00:37:24.936Z,100.00
2022-11-30T00:42:28.348Z,100.00
2022-11-30T00:47:30.268Z,99.92
2022-11-30T00:52:32.424Z,100.00
2022-11-30T00:57:35.962Z,100.00
2022-11-30T01:02:38.157Z,100.00
2022-11-30T01:07:40.476Z,100.00
2022-11-30T01:12:44.137Z,100.00
2022-11-30T01:17:46.240Z,99.63
2022-11-30T01:22:48.581Z,99.61
2022-11-30T01:27:52.520Z,99.89
2022-11-30T01:32:54.223Z,100.00
2022-11-30T01:37:56.310Z,100.00
2022-11-30T01:42:59.991Z,99.85
2022-11-30T01:48:02.212Z,99.60
2022-11-30T01:53:08.155Z,99.60
2022-11-30T01:58:15.241Z,98.66
2022-11-30T02:03:27.472Z,99.40
2022-11-30T02:08:32.040Z,99.25
2022-11-30T02:13:45.877Z,99.28
2022-11-30T02:19:01.221Z,99.52
2022-11-30T02:24:18.090Z,99.51
2022-11-30T02:29:24.867Z,98.27
2022-11-30T02:34:30.892Z,98.40
2022-11-30T02:39:33.033Z,98.33
2022-11-30T02:44:36.794Z,98.59
2022-11-30T02:49:46.877Z,98.58
2022-11-30T02:54:49.561Z,98.62
2022-11-30T02:59:53.873Z,98.27
2022-11-30T03:04:56.147Z,98.63
2022-11-30T03:10:00.091Z,98.73
2022-11-30T03:15:04.531Z,98.71
2022-11-30T03:20:08.264Z,98.29
2022-11-30T03:25:10.228Z,97.82
2022-11-30T03:30:14.256Z,97.70
2022-11-30T03:35:16.536Z,97.79
2022-11-30T03:40:18.600Z,97.74
2022-11-30T03:45:22.128Z,97.48
2022-11-30T03:50:24.073Z,97.50
2022-11-30T03:55:26.150Z,97.35
2022-11-30T04:00:29.509Z,97.20
2022-11-30T04:05:31.624Z,97.05
2022-11-30T04:10:33.734Z,96.68
2022-11-30T04:15:37.444Z,96.79
2022-11-30T04:20:40.731Z,96.76
2022-11-30T04:25:42.663Z,96.43
2022-11-30T04:30:46.823Z,96.43
2022-11-30T04:35:54.941Z,96.12
2022-11-30T04:40:57.063Z,96.21
2022-11-30T04:46:00.595Z,95.85
2022-11-30T04:51:03.627Z,95.82
2022-11-30T04:56:06.338Z,95.82
2022-11-30T05:01:09.773Z,95.38
2022-11-30T05:06:11.551Z,95.60
2022-11-30T05:11:13.773Z,95.57
2022-11-30T05:16:17.220Z,95.01
2022-11-30T05:21:19.488Z,95.28
2022-11-30T05:26:21.163Z,94.42
2022-11-30T05:31:24.199Z,94.48
2022-11-30T05:36:26.310Z,94.63
2022-11-30T05:41:28.101Z,94.53
2022-11-30T05:46:31.831Z,94.43
2022-11-30T05:51:33.624Z,94.69
2022-11-30T05:56:35.748Z,94.49
2022-11-30T06:01:39.271Z,94.69
2022-11-30T06:06:41.351Z,94.39
2022-11-30T06:11:43.304Z,93.99
2022-11-30T06:16:46.923Z,94.36
2022-11-30T06:21:49.174Z,94.53
2022-11-30T06:26:51.477Z,94.79
2022-11-30T06:31:55.122Z,94.21
2022-11-30T06:36:57.749Z,94.16
2022-11-30T06:42:01.186Z,94.48
2022-11-30T06:47:04.866Z,93.90
2022-11-30T06:52:06.906Z,93.72
2022-11-30T06:57:09.191Z,93.69
2022-11-30T07:02:18.358Z,92.92
2022-11-30T07:07:20.991Z,93.09
2022-11-30T07:12:23.349Z,92.15
2022-11-30T07:17:27.464Z,92.79
2022-11-30T07:22:29.393Z,93.59
2022-11-30T07:27:31.472Z,92.98
2022-11-30T07:32:35.116Z,93.76
2022-11-30T07:37:37.487Z,93.04
2022-11-30T07:42:39.570Z,92.81
2022-11-30T07:47:43.143Z,92.72
2022-11-30T07:52:45.436Z,92.98
2022-11-30T07:57:47.664Z,92.92
2022-11-30T08:02:51.842Z,92.86
2022-11-30T08:07:54.482Z,92.32
2022-11-30T08:12:56.819Z,92.27
2022-11-30T08:18:01.106Z,91.58
2022-11-30T08:23:03.401Z,91.70
2022-11-30T08:28:05.861Z,90.67
2022-11-30T08:33:09.630Z,90.60
2022-11-30T08:38:11.845Z,90.52
2022-11-30T08:43:14.010Z,89.89
2022-11-30T08:48:17.497Z,89.44
2022-11-30T08:53:19.579Z,89.12
2022-11-30T08:58:21.769Z,88.94
2022-11-30T09:03:25.287Z,88.07
2022-11-30T09:08:27.367Z,87.71
2022-11-30T09:13:29.794Z,86.69
2022-11-30T09:18:33.783Z,86.20
2022-11-30T09:23:36.235Z,85.19
2022-11-30T09:28:38.993Z,85.24
2022-11-30T09:33:43.107Z,83.00
2022-11-30T09:38:45.977Z,82.55
2022-11-30T09:43:56.011Z,82.18
2022-11-30T09:49:03.457Z,81.40
2022-11-30T09:54:11.108Z,81.49
2022-11-30T09:59:19.586Z,80.44
2022-11-30T10:04:25.085Z,80.45
2022-11-30T10:09:39.204Z,79.16
2022-11-30T10:15:24.692Z,79.08
2022-11-30T10:20:50.017Z,78.07
2022-11-30T10:25:55.455Z,77.05
2022-11-30T10:30:57.819Z,76.46
2022-11-30T10:36:05.340Z,75.34
2022-11-30T10:41:14.010Z,75.64
2022-11-30T10:46:22.269Z,75.03
2022-11-30T10:51:27.675Z,74.73
2022-11-30T10:56:29.909Z,74.78
2022-11-30T11:01:35.799Z,74.07
2022-11-30T11:06:43.032Z,73.67
2022-11-30T11:11:45.361Z,73.88
2022-11-30T11:16:54.219Z,73.80
2022-11-30T11:21:58.020Z,74.20
2022-11-30T11:27:00.585Z,73.73
2022-11-30T11:32:21.267Z,74.19
2022-11-30T11:37:26.663Z,73.85
2022-11-30T11:42:31.954Z,75.56
2022-11-30T11:47:39.618Z,75.37
2022-11-30T11:52:42.759Z,77.18
2022-11-30T11:57:50.388Z,76.50
2022-11-30T12:03:00.668Z,77.73
2022-11-30T12:08:13.180Z,77.96
2022-11-30T12:13:17.800Z,77.95
2022-11-30T12:18:24.572Z,79.77
2022-11-30T12:23:53.490Z,79.17
2022-11-30T12:29:19.689Z,72.56
2022-11-30T12:34:28.383Z,70.60
2022-11-30T12:39:43.054Z,70.58
2022-11-30T12:44:54.007Z,70.75
2022-11-30T12:50:19.258Z,70.75
2022-11-30T12:55:31.378Z,69.83
2022-11-30T13:00:42.242Z,69.91
2022-11-30T13:05:48.597Z,69.92
2022-11-30T13:10:57.078Z,71.94
2022-11-30T13:16:04.965Z,71.93
2022-11-30T13:21:17.163Z,72.39
2022-11-30T13:26:26.696Z,72.35
2022-11-30T13:31:33.270Z,72.60
2022-11-30T13:36:38.667Z,73.16
2022-11-30T13:41:44.009Z,75.00
2022-11-30T13:46:50.536Z,75.95
2022-11-30T13:52:21.353Z,76.30
2022-11-30T13:58:02.765Z,78.23
2022-11-30T14:03:35.799Z,79.54
2022-11-30T14:08:39.756Z,80.73
2022-11-30T14:13:42.348Z,82.40
2022-11-30T14:18:47.513Z,84.57
2022-11-30T14:23:56.652Z,85.72
2022-11-30T14:29:03.182Z,86.58
2022-11-30T14:34:14.896Z,87.19
2022-11-30T14:39:28.532Z,88.57
2022-11-30T14:44:35.205Z,88.98
2022-11-30T14:49:47.458Z,89.17
2022-11-30T14:54:56.734Z,89.72
2022-11-30T14:59:59.268Z,90.91
2022-11-30T15:05:06.714Z,91.58
2022-11-30T15:10:12.622Z,92.13
2022-11-30T15:15:19.252Z,93.17
2022-11-30T15:20:36.564Z,93.80
2022-11-30T15:25:42.960Z,92.76
2022-11-30T15:30:53.854Z,93.57
2022-11-30T15:36:22.982Z,93.70
2022-11-30T15:41:24.413Z,94.71
2022-11-30T15:46:33.626Z,95.16
2022-11-30T15:51:42.159Z,95.44
2022-11-30T15:57:09.357Z,95.67
2022-11-30T16:02:28.790Z,95.22
2022-11-30T16:07:36.596Z,95.68
2022-11-30T16:12:39.397Z,95.25
2022-11-30T16:17:43.348Z,95.90
2022-11-30T16:22:47.837Z,96.18
2022-11-30T16:27:51.165Z,96.31
2022-11-30T16:32:53.261Z,96.82
2022-11-30T16:37:56.896Z,96.78
2022-11-30T16:42:59.119Z,97.34
2022-11-30T16:48:01.442Z,96.82
2022-11-30T16:53:06.489Z,97.04
2022-11-30T16:58:10.295Z,97.01
2022-11-30T17:03:20.368Z,96.72
2022-11-30T17:08:23.761Z,96.25
2022-11-30T17:13:25.907Z,96.38
2022-11-30T17:18:27.845Z,96.60
2022-11-30T17:23:31.529Z,96.06
2022-11-30T17:28:34.008Z,96.10
2022-11-30T17:33:37.697Z,95.67
2022-11-30T17:38:42.322Z,95.68
2022-11-30T17:43:44.902Z,95.70
2022-11-30T17:48:46.936Z,95.74
2022-11-30T17:53:53.165Z,95.32
2022-11-30T17:58:55.331Z,95.63
2022-11-30T18:03:57.935Z,95.78
2022-11-30T18:09:01.891Z,95.86
2022-11-30T18:14:04.067Z,95.93
2022-11-30T18:19:06.712Z,96.03
2022-11-30T18:24:09.972Z,95.79
2022-11-30T18:29:12.374Z,94.17
2022-11-30T18:34:14.699Z,93.38
2022-11-30T18:39:18.524Z,93.14
2022-11-30T18:44:21.020Z,92.76
2022-11-30T18:49:22.786Z,93.14
2022-11-30T18:54:26.312Z,93.27
2022-11-30T18:59:28.427Z,92.59
2022-11-30T19:04:30.338Z,92.66
2022-11-30T19:09:33.797Z,92.39
2022-11-30T19:14:35.545Z,92.70
2022-11-30T19:19:37.943Z,91.80
2022-11-30T19:24:41.444Z,92.22
2022-11-30T19:29:44.040Z,92.88
2022-11-30T19:34:46.094Z,93.17
2022-11-30T19:39:50.024Z,92.83
2022-11-30T19:44:52.029Z,93.08
2022-11-30T19:49:53.847Z,93.19
2022-11-30T19:54:56.972Z,94.04
2022-11-30T19:59:58.744Z,94.78
2022-11-30T20:05:01.363Z,93.97
2022-11-30T20:10:08.070Z,94.71
2022-11-30T20:15:10.973Z,94.67
2022-11-30T20:20:13.158Z,93.47
2022-11-30T20:25:17.344Z,93.89
2022-11-30T20:30:20.228Z,93.21
2022-11-30T20:35:22.100Z,92.75
2022-11-30T20:40:25.469Z,92.53
2022-11-30T20:45:27.266Z,92.40
2022-11-30T20:50:29.389Z,93.48
2022-11-30T20:55:32.622Z,93.06
2022-11-30T21:00:34.338Z,93.72
2022-11-30T21:05:38.548Z,95.14
2022-11-30T21:10:41.974Z,94.82
2022-11-30T21:15:43.887Z,93.98
2022-11-30T21:20:45.998Z,94.48
2022-11-30T21:25:49.527Z,94.50
2022-11-30T21:30:51.930Z,95.42
2022-11-30T21:35:54.154Z,95.07
2022-11-30T21:40:59.638Z,95.11
2022-11-30T21:46:03.397Z,95.17
2022-11-30T21:51:06.816Z,95.38
2022-11-30T21:56:12.552Z,95.07
2022-11-30T22:01:17.330Z,95.65
2022-11-30T22:06:20.337Z,95.44
2022-11-30T22:11:24.401Z,95.78
2022-11-30T22:16:34.023Z,96.20
2022-11-30T22:21:38.926Z,95.67
2022-11-30T22:26:43.876Z,95.95
2022-11-30T22:31:47.349Z,95.93
2022-11-30T22:36:49.763Z,95.45
2022-11-30T22:41:56.073Z,95.86
2022-11-30T22:46:58.572Z,95.27
2022-11-30T22:52:00.808Z,95.53
2022-11-30T22:57:04.374Z,94.52
2022-11-30T23:02:06.520Z,95.61
2022-11-30T23:07:08.801Z,96.12
2022-11-30T23:12:20.418Z,96.84
2022-11-30T23:17:34.315Z,96.89
2022-11-30T23:22:36.420Z,97.16
2022-11-30T23:27:39.589Z,96.79
2022-11-30T23:32:41.526Z,96.62
2022-11-30T23:37:43.605Z,96.50
2022-11-30T23:42:46.699Z,96.70
2022-11-30T23:47:48.675Z,96.61
2022-11-30T23:52:50.773Z,96.67
2022-11-30T23:57:53.873Z,96.61
